Time;durP1;ratioP1;P1;durP2;ratioP2;P2;SDS_P1;SDS_P2;PMS_P1;PMS_P2;Temp;Humidity;BMP_temperature;BMP_pressure;BME280_temperature;BME280_humidity;BME280_pressure;Samples;Min_cycle;Max_cycle;Signal;HPM_P1;HPM_P2
2021/05/14 00:00:58;;;;;;;1.42;0.75;;;10.70;99.90;;;;;;5037443;28;20028;-70
2021/05/14 00:03:26;;;;;;;4.03;0.82;;;10.80;99.90;;;;;;5019697;28;20072;-70
2021/05/14 00:05:54;;;;;;;4.50;0.93;;;10.80;99.90;;;;;;5019904;28;20373;-71
2021/05/14 00:08:21;;;;;;;5.82;0.82;;;10.80;99.90;;;;;;5037705;28;20036;-70
2021/05/14 00:10:50;;;;;;;2.28;0.90;;;10.80;99.90;;;;;;5037185;28;20030;-70
2021/05/14 00:13:19;;;;;;;6.18;1.67;;;10.80;99.90;;;;;;5037221;28;20112;-70
2021/05/14 00:15:48;;;;;;;1.38;0.80;;;10.80;99.90;;;;;;5037116;28;20377;-70
2021/05/14 00:18:16;;;;;;;3.25;1.48;;;10.70;99.90;;;;;;5036301;28;20041;-70
2021/05/14 00:20:46;;;;;;;3.13;1.23;;;10.80;99.90;;;;;;5036335;28;20425;-70
2021/05/14 00:23:14;;;;;;;2.75;1.20;;;10.70;99.90;;;;;;5040356;28;20029;-70
2021/05/14 00:25:42;;;;;;;2.35;0.95;;;10.70;99.90;;;;;;5040297;28;20022;-70
2021/05/14 00:28:10;;;;;;;6.57;1.27;;;10.70;99.90;;;;;;5040403;28;20036;-70
2021/05/14 00:30:38;;;;;;;6.25;1.35;;;10.70;99.90;;;;;;5040772;28;20033;-70
2021/05/14 00:33:06;;;;;;;4.63;1.40;;;10.70;99.90;;;;;;5040152;28;20087;-70
2021/05/14 00:35:34;;;;;;;4.88;1.50;;;10.60;99.90;;;;;;5023210;28;20071;-70
2021/05/14 00:38:03;;;;;;;2.78;1.10;;;10.60;99.90;;;;;;5041453;28;20448;-70
2021/05/14 00:40:32;;;;;;;4.18;1.55;;;10.50;99.90;;;;;;5040965;28;20026;-70
2021/05/14 00:43:00;;;;;;;5.88;1.55;;;10.40;99.90;;;;;;5040839;28;20026;-71
2021/05/14 00:45:28;;;;;;;3.00;1.70;;;10.40;99.90;;;;;;5040954;28;20112;-70
2021/05/14 00:47:56;;;;;;;6.72;1.33;;;10.40;99.90;;;;;;5041270;28;20026;-70
2021/05/14 00:50:24;;;;;;;2.92;1.20;;;10.30;99.90;;;;;;5041045;28;20032;-70
2021/05/14 00:52:52;;;;;;;3.33;1.23;;;10.30;99.90;;;;;;5040340;28;20378;-70
2021/05/14 00:55:20;;;;;;;2.70;1.05;;;10.20;99.90;;;;;;5039694;28;20059;-70
2021/05/14 00:57:48;;;;;;;8.95;1.40;;;10.20;99.90;;;;;;5039690;28;20025;-70
2021/05/14 01:00:16;;;;;;;4.75;1.65;;;10.20;99.90;;;;;;5039805;28;20025;-70
2021/05/14 01:02:44;;;;;;;3.03;1.60;;;10.10;99.90;;;;;;5039876;28;20025;-70
2021/05/14 01:05:12;;;;;;;4.10;1.38;;;10.00;99.90;;;;;;5021935;28;20116;-70
2021/05/14 01:07:39;;;;;;;3.88;2.22;;;9.90;99.90;;;;;;5022086;28;20108;-70
2021/05/14 01:10:08;;;;;;;9.02;1.98;;;9.80;99.90;;;;;;5040406;28;20013;-70
2021/05/14 01:12:36;;;;;;;3.00;1.52;;;9.80;99.90;;;;;;5040837;28;20310;-70
2021/05/14 01:15:04;;;;;;;5.72;1.35;;;9.70;99.90;;;;;;5022707;28;20053;-70
2021/05/14 01:17:33;;;;;;;6.05;1.55;;;9.70;99.90;;;;;;5019024;28;20073;-70
2021/05/14 01:20:02;;;;;;;7.10;1.50;;;9.70;99.90;;;;;;5019341;28;20022;-70
2021/05/14 01:22:30;;;;;;;2.78;1.50;;;9.70;99.90;;;;;;5020423;28;20022;-70
2021/05/14 01:24:58;;;;;;;5.20;1.25;;;9.80;99.90;;;;;;5019868;28;20018;-70
2021/05/14 01:27:26;;;;;;;8.02;1.50;;;9.80;99.90;;;;;;5019350;28;20022;-70
2021/05/14 01:29:54;;;;;;;5.75;1.08;;;9.80;99.90;;;;;;5019330;28;20156;-70
2021/05/14 01:32:21;;;;;;;2.60;1.45;;;9.80;99.90;;;;;;5019035;28;20021;-70
2021/05/14 01:34:48;;;;;;;6.70;1.52;;;9.80;99.90;;;;;;5019427;28;20022;-70
2021/05/14 01:37:16;;;;;;;2.60;1.25;;;9.80;99.90;;;;;;5019095;28;20105;-70
2021/05/14 01:39:44;;;;;;;4.20;1.73;;;9.70;99.90;;;;;;5019978;28;20474;-70
2021/05/14 01:42:11;;;;;;;3.80;1.45;;;9.70;99.90;;;;;;5018888;28;20307;-70
2021/05/14 01:44:39;;;;;;;2.45;1.45;;;9.70;99.90;;;;;;5020421;28;20029;-70
2021/05/14 01:47:06;;;;;;;4.60;1.40;;;9.70;99.90;;;;;;5020377;28;20022;-70
2021/05/14 01:49:34;;;;;;;3.95;1.88;;;9.60;99.90;;;;;;5019936;28;20104;-70
2021/05/14 01:52:02;;;;;;;4.25;1.48;;;9.60;99.90;;;;;;5019751;28;20026;-70
2021/05/14 01:54:30;;;;;;;5.55;1.40;;;9.60;99.90;;;;;;5019877;28;20030;-70
2021/05/14 01:56:58;;;;;;;6.07;1.85;;;9.60;99.90;;;;;;5018907;28;20333;-70
2021/05/14 01:59:26;;;;;;;8.23;1.70;;;9.60;99.90;;;;;;5018837;28;20041;-70
2021/05/14 02:01:54;;;;;;;5.75;1.90;;;9.60;99.90;;;;;;5019218;28;20411;-70
2021/05/14 02:04:21;;;;;;;6.00;2.03;;;9.60;99.90;;;;;;5019369;28;20113;-70
2021/05/14 02:06:49;;;;;;;5.40;1.42;;;9.60;99.90;;;;;;5017768;28;20026;-70
2021/05/14 02:09:17;;;;;;;2.70;1.15;;;9.60;99.90;;;;;;5018248;28;20088;-70
2021/05/14 02:11:44;;;;;;;5.78;1.25;;;9.60;99.90;;;;;;5019116;28;20026;-71
2021/05/14 02:14:12;;;;;;;4.63;1.77;;;9.60;99.90;;;;;;5018719;28;20022;-70
2021/05/14 02:16:40;;;;;;;3.10;1.23;;;9.60;99.90;;;;;;5019341;28;20030;-70
2021/05/14 02:19:08;;;;;;;6.32;1.50;;;9.60;99.90;;;;;;5037342;28;20145;-70
2021/05/14 02:21:36;;;;;;;3.42;1.50;;;9.60;99.90;;;;;;5038997;28;20021;-70
2021/05/14 02:24:04;;;;;;;11.07;1.90;;;9.60;99.90;;;;;;5039043;28;20013;-70
2021/05/14 02:26:32;;;;;;;3.80;1.60;;;9.60;99.90;;;;;;5039458;28;20368;-70
2021/05/14 02:28:59;;;;;;;4.03;1.45;;;9.60;99.90;;;;;;5038919;28;20095;-70
2021/05/14 02:31:27;;;;;;;4.43;1.85;;;9.60;99.90;;;;;;5037890;28;20025;-70
2021/05/14 02:33:54;;;;;;;5.03;2.03;;;9.60;99.90;;;;;;5037849;28;20025;-70
2021/05/14 02:36:23;;;;;;;4.18;1.73;;;9.60;99.90;;;;;;5020323;28;20026;-70
2021/05/14 02:38:51;;;;;;;4.75;1.70;;;9.60;99.90;;;;;;5020124;28;20056;-70
2021/05/14 02:41:19;;;;;;;4.50;1.58;;;9.60;99.90;;;;;;5038256;28;20017;-70
2021/05/14 02:43:47;;;;;;;5.20;1.55;;;9.60;99.90;;;;;;5037811;28;20025;-70
2021/05/14 02:46:15;;;;;;;6.43;1.27;;;9.50;99.90;;;;;;5038193;28;20029;-70
2021/05/14 02:48:42;;;;;;;3.63;1.83;;;9.50;99.90;;;;;;5038393;28;20076;-70
2021/05/14 02:51:10;;;;;;;4.18;1.60;;;9.60;99.90;;;;;;5039003;28;20045;-70
2021/05/14 02:53:38;;;;;;;5.57;1.58;;;9.60;99.90;;;;;;5039176;28;20409;-70
2021/05/14 02:56:06;;;;;;;3.42;1.50;;;9.60;99.90;;;;;;5038349;28;20397;-70
2021/05/14 02:58:34;;;;;;;5.85;1.42;;;9.60;99.90;;;;;;5020825;28;20029;-70
2021/05/14 03:01:02;;;;;;;3.13;1.50;;;9.60;99.90;;;;;;5038521;28;20014;-70
2021/05/14 03:03:30;;;;;;;5.30;2.38;;;9.60;99.90;;;;;;5037976;28;20021;-70
2021/05/14 03:05:58;;;;;;;8.02;1.48;;;9.60;99.90;;;;;;5037883;28;20108;-70
2021/05/14 03:08:25;;;;;;;3.67;1.60;;;9.60;99.90;;;;;;5037284;28;20334;-70
2021/05/14 03:10:53;;;;;;;5.82;2.60;;;9.60;99.90;;;;;;5019913;28;20025;-70
2021/05/14 03:13:21;;;;;;;4.63;1.75;;;9.60;99.90;;;;;;5037516;28;20021;-70
2021/05/14 03:15:48;;;;;;;2.90;1.80;;;9.60;99.90;;;;;;5037056;28;20022;-70
2021/05/14 03:18:16;;;;;;;6.25;2.80;;;9.60;99.90;;;;;;5036813;28;20438;-70
2021/05/14 03:20:44;;;;;;;7.20;3.35;;;9.60;99.90;;;;;;5037152;28;20053;-70
2021/05/14 03:23:11;;;;;;;4.57;2.45;;;9.60;99.90;;;;;;5037700;28;20024;-70
2021/05/14 03:25:39;;;;;;;8.73;2.85;;;9.70;99.90;;;;;;5038554;28;20033;-70
2021/05/14 03:28:07;;;;;;;5.40;2.88;;;9.70;99.90;;;;;;5037829;28;20021;-70
2021/05/14 03:30:35;;;;;;;8.73;5.07;;;9.80;99.90;;;;;;5038329;28;20022;-70
2021/05/14 03:33:03;;;;;;;10.82;6.45;;;9.90;99.90;;;;;;5020091;28;20033;-70
2021/05/14 03:35:31;;;;;;;11.02;6.47;;;9.90;99.90;;;;;;5037851;28;20060;-70
2021/05/14 03:37:58;;;;;;;9.30;6.40;;;10.00;99.90;;;;;;5038049;28;20025;-70
2021/05/14 03:42:58;;;;;;;13.50;7.90;;;10.00;99.90;;;;;;5036771;28;20033;-70
2021/05/14 03:45:26;;;;;;;21.60;11.32;;;10.10;99.90;;;;;;5037175;28;20028;-70
2021/05/14 03:47:57;;;;;;;28.80;15.50;;;10.10;99.90;;;;;;5037110;28;20064;-70
2021/05/14 03:50:33;;;;;;;23.48;15.60;;;10.20;99.90;;;;;;5036858;28;20021;-70
2021/05/14 03:53:04;;;;;;;26.08;16.70;;;10.20;99.90;;;;;;5036563;28;20021;-70
2021/05/14 03:55:32;;;;;;;23.67;16.50;;;10.30;99.90;;;;;;5036649;28;20025;-70
2021/05/14 03:58:00;;;;;;;28.60;15.80;;;10.40;99.90;;;;;;5037232;28;20052;-70
2021/05/14 04:00:28;;;;;;;23.42;15.68;;;10.40;99.90;;;;;;5038118;28;20021;-70
2021/05/14 04:02:57;;;;;;;26.63;16.40;;;10.50;99.90;;;;;;5019754;28;20029;-71
2021/05/14 04:05:25;;;;;;;25.23;16.02;;;10.50;99.90;;;;;;5037337;28;20075;-70
2021/05/14 04:07:54;;;;;;;26.85;16.30;;;10.60;99.90;;;;;;5037245;28;20033;-70
2021/05/14 04:15:45;;;;;;;30.63;17.38;;;10.60;99.90;;;;;;5036619;28;20392;-70
2021/05/14 04:18:13;;;;;;;31.55;17.23;;;10.70;99.90;;;;;;5035995;28;20429;-70
2021/05/14 04:20:41;;;;;;;29.13;18.00;;;10.70;99.90;;;;;;5036776;28;20026;-70
2021/05/14 04:23:09;;;;;;;28.48;18.73;;;10.80;99.90;;;;;;5036500;28;20294;-70
2021/05/14 04:25:38;;;;;;;32.42;19.33;;;10.80;99.90;;;;;;5018731;28;20026;-70
2021/05/14 04:28:06;;;;;;;28.50;17.92;;;10.80;99.90;;;;;;5036556;28;20026;-70
2021/05/14 04:30:34;;;;;;;30.65;19.35;;;10.90;99.90;;;;;;5019398;28;20021;-70
2021/05/14 04:33:04;;;;;;;29.00;19.40;;;10.90;99.90;;;;;;5037242;28;20112;-70
2021/05/14 04:35:33;;;;;;;28.45;19.35;;;10.90;99.90;;;;;;5037136;28;20033;-70
2021/05/14 04:38:01;;;;;;;30.42;18.85;;;11.00;99.90;;;;;;5037061;28;20013;-70
2021/05/14 04:40:29;;;;;;;29.25;18.73;;;11.00;99.90;;;;;;5037668;28;20014;-70
2021/05/14 04:43:04;;;;;;;30.73;18.35;;;11.10;99.90;;;;;;5036994;28;20017;-70
2021/05/14 04:45:32;;;;;;;31.63;18.73;;;11.10;99.90;;;;;;5037427;28;20357;-70
2021/05/14 04:48:00;;;;;;;26.27;19.30;;;11.10;99.90;;;;;;5035982;28;20021;-70
2021/05/14 04:50:27;;;;;;;30.35;20.15;;;11.20;99.90;;;;;;5036735;28;20371;-70
2021/05/14 04:53:29;;;;;;;29.05;19.23;;;11.20;99.90;;;;;;5036554;28;20021;-70
2021/05/14 04:55:57;;;;;;;31.33;19.63;;;11.20;99.90;;;;;;5019485;28;20029;-70
2021/05/14 04:58:25;;;;;;;31.85;19.83;;;11.20;99.90;;;;;;5035890;28;20048;-70
2021/05/14 05:00:53;;;;;;;29.33;19.60;;;11.20;99.90;;;;;;5019077;28;20117;-70
2021/05/14 05:03:20;;;;;;;30.08;21.10;;;11.30;99.90;;;;;;5035796;28;20024;-70
2021/05/14 05:05:50;;;;;;;29.85;20.05;;;11.30;99.90;;;;;;5037284;28;20029;-70
2021/05/14 05:08:18;;;;;;;32.78;22.02;;;11.30;99.90;;;;;;5021418;28;20334;-70
2021/05/14 05:10:46;;;;;;;32.30;20.90;;;11.30;99.90;;;;;;5041082;28;20104;-71
2021/05/14 05:13:15;;;;;;;29.65;18.83;;;11.30;99.90;;;;;;5040384;28;20349;-71
2021/05/14 05:15:43;;;;;;;30.00;20.02;;;11.30;99.90;;;;;;5040832;28;20026;-71
2021/05/14 05:18:11;;;;;;;31.33;20.45;;;11.30;99.90;;;;;;5039973;28;20046;-70
2021/05/14 05:20:40;;;;;;;32.22;20.85;;;11.40;99.90;;;;;;5039965;28;20032;-71
2021/05/14 05:23:07;;;;;;;31.15;20.25;;;11.40;99.90;;;;;;5039499;28;20049;-71
2021/05/14 05:25:36;;;;;;;33.55;22.20;;;11.40;99.90;;;;;;5022374;28;20056;-72
2021/05/14 05:28:04;;;;;;;34.53;20.20;;;11.50;99.90;;;;;;5039144;28;20025;-71
2021/05/14 05:30:31;;;;;;;33.65;21.73;;;11.40;99.90;;;;;;5039318;28;20032;-72
2021/05/14 05:32:59;;;;;;;31.98;20.42;;;11.50;99.90;;;;;;5021378;28;20433;-73
2021/05/14 05:35:27;;;;;;;41.08;22.40;;;11.50;99.90;;;;;;5039750;28;20033;-69
2021/05/14 05:37:55;;;;;;;34.08;21.08;;;11.50;99.90;;;;;;5039006;28;20021;-77
2021/05/14 05:40:23;;;;;;;36.30;21.73;;;11.60;99.90;;;;;;5039820;28;20433;-70
2021/05/14 05:42:50;;;;;;;34.38;21.13;;;11.60;99.90;;;;;;5022142;28;20028;-69
2021/05/14 05:45:18;;;;;;;29.55;19.35;;;11.70;99.90;;;;;;5022371;28;20029;-71
2021/05/14 05:47:46;;;;;;;29.27;20.10;;;11.70;99.90;;;;;;5022316;28;20319;-69
2021/05/14 05:50:14;;;;;;;28.02;19.23;;;11.80;99.90;;;;;;5040202;28;20021;-70
2021/05/14 05:52:42;;;;;;;27.75;17.90;;;11.80;99.90;;;;;;5039515;28;20068;-70
2021/05/14 05:55:10;;;;;;;27.08;17.92;;;11.90;99.90;;;;;;5022244;28;20057;-70
2021/05/14 05:57:38;;;;;;;29.80;19.05;;;11.90;99.90;;;;;;5039156;28;20022;-72
2021/05/14 06:00:06;;;;;;;27.17;18.92;;;11.90;99.90;;;;;;5039147;28;20386;-71
2021/05/14 06:02:33;;;;;;;28.90;19.10;;;12.00;99.90;;;;;;5020874;28;20447;-71
2021/05/14 06:05:02;;;;;;;27.88;18.67;;;12.10;99.90;;;;;;5020929;28;20021;-71
2021/05/14 06:07:29;;;;;;;29.85;18.58;;;12.20;99.90;;;;;;5039007;28;20022;-71
2021/05/14 06:09:57;;;;;;;27.70;19.02;;;12.20;99.90;;;;;;5021195;28;20021;-71
2021/05/14 06:12:24;;;;;;;28.00;17.15;;;12.30;99.90;;;;;;5021094;28;20045;-73
2021/05/14 06:14:51;;;;;;;27.60;18.23;;;12.40;99.90;;;;;;5021596;28;20056;-72
2021/05/14 06:17:19;;;;;;;27.55;17.70;;;12.40;99.90;;;;;;5039046;28;20519;-73
2021/05/14 06:19:53;;;;;;;26.05;17.45;;;12.50;99.90;;;;;;5020765;28;20108;-72
2021/05/14 06:22:22;;;;;;;29.20;17.83;;;12.50;99.90;;;;;;5021490;28;20120;-72
2021/05/14 06:24:50;;;;;;;23.85;17.27;;;12.50;99.90;;;;;;5021490;28;20033;-73
2021/05/14 06:27:18;;;;;;;23.52;16.70;;;12.50;99.90;;;;;;5039195;28;20029;-72
2021/05/14 06:29:46;;;;;;;29.38;17.27;;;12.60;99.90;;;;;;5038263;28;20028;-71
2021/05/14 06:32:14;;;;;;;25.02;17.83;;;12.60;99.90;;;;;;5037952;28;20048;-72
2021/05/14 06:34:43;;;;;;;28.80;17.98;;;12.70;99.90;;;;;;5020364;28;20052;-72
2021/05/14 06:37:12;;;;;;;32.25;18.13;;;12.70;99.90;;;;;;5037762;28;20069;-71
2021/05/14 06:39:43;;;;;;;28.23;17.60;;;12.80;99.90;;;;;;5037886;28;20124;-72
2021/05/14 06:42:11;;;;;;;31.67;18.85;;;12.80;99.90;;;;;;5037819;28;20107;-71
2021/05/14 06:44:39;;;;;;;28.45;18.45;;;12.90;99.90;;;;;;5037796;28;20032;-72
2021/05/14 06:47:07;;;;;;;25.70;18.40;;;12.90;99.90;;;;;;5038551;28;20028;-71
2021/05/14 06:49:35;;;;;;;29.77;19.50;;;13.00;99.90;;;;;;5038508;28;20034;-71
2021/05/14 06:52:03;;;;;;;27.05;17.20;;;13.00;99.90;;;;;;5038667;28;20057;-71
2021/05/14 06:54:31;;;;;;;25.42;18.42;;;13.00;99.90;;;;;;5038828;28;20025;-70
2021/05/14 06:57:02;;;;;;;30.73;19.08;;;13.10;99.90;;;;;;5038645;28;20322;-70
2021/05/14 06:59:30;;;;;;;29.60;18.40;;;13.10;99.90;;;;;;5039256;28;20018;-71
2021/05/14 07:01:58;;;;;;;30.55;20.83;;;13.20;99.90;;;;;;5037781;28;20029;-71
2021/05/14 07:04:25;;;;;;;30.17;18.50;;;13.20;99.90;;;;;;5019950;28;20448;-71
2021/05/14 07:06:54;;;;;;;28.10;18.45;;;13.20;99.90;;;;;;5037256;28;20417;-71
2021/05/14 07:09:22;;;;;;;28.67;18.77;;;13.40;99.90;;;;;;5037714;28;20101;-71
2021/05/14 07:11:49;;;;;;;29.33;18.95;;;13.40;99.90;;;;;;5037336;28;20021;-71
2021/05/14 07:14:18;;;;;;;29.27;19.67;;;13.40;99.90;;;;;;5037469;28;20112;-71
2021/05/14 07:16:46;;;;;;;30.95;20.08;;;13.50;99.90;;;;;;5037025;28;20029;-71
2021/05/14 07:19:14;;;;;;;29.83;20.17;;;13.60;99.90;;;;;;5016317;28;20464;-71
2021/05/14 07:21:43;;;;;;;23.70;16.80;;;13.80;99.90;;;;;;5018582;28;20325;-71
2021/05/14 07:24:11;;;;;;;24.30;16.55;;;13.90;99.90;;;;;;5018705;28;20441;-71
2021/05/14 07:26:38;;;;;;;24.48;16.08;;;14.00;99.90;;;;;;5017019;28;20037;-71
2021/05/14 07:29:09;;;;;;;22.95;16.63;;;14.00;99.90;;;;;;5018612;28;20025;-71
2021/05/14 07:31:36;;;;;;;24.80;16.55;;;14.10;99.90;;;;;;5017921;28;20026;-71
2021/05/14 07:34:04;;;;;;;21.77;15.52;;;14.10;99.90;;;;;;5017822;28;20437;-72
2021/05/14 07:36:32;;;;;;;26.40;16.80;;;14.00;99.90;;;;;;5017032;28;20033;-72
2021/05/14 07:39:00;;;;;;;22.58;15.15;;;14.10;99.90;;;;;;5017361;28;20018;-72
2021/05/14 07:41:28;;;;;;;20.58;14.30;;;14.10;99.90;;;;;;5017565;28;20029;-70
2021/05/14 07:43:56;;;;;;;19.73;14.85;;;14.10;99.90;;;;;;5016059;28;20032;-72
2021/05/14 07:46:24;;;;;;;20.77;13.38;;;14.20;99.90;;;;;;5016960;28;20022;-72
2021/05/14 07:48:52;;;;;;;19.23;13.68;;;14.20;99.90;;;;;;5017535;28;20083;-73
2021/05/14 07:51:19;;;;;;;20.15;14.73;;;14.30;99.90;;;;;;5018232;28;20057;-72
2021/05/14 07:53:47;;;;;;;18.70;13.43;;;14.30;99.90;;;;;;5017925;28;20030;-72
2021/05/14 07:56:15;;;;;;;22.42;13.55;;;14.30;99.90;;;;;;5017556;28;20105;-77
2021/05/14 07:58:43;;;;;;;19.00;14.27;;;14.30;99.90;;;;;;5016563;28;20018;-71
2021/05/14 08:01:11;;;;;;;20.63;13.20;;;14.30;99.90;;;;;;5016501;28;20056;-72
2021/05/14 08:03:39;;;;;;;19.10;13.32;;;14.30;99.90;;;;;;5017489;28;20026;-71
2021/05/14 08:06:07;;;;;;;19.13;13.38;;;14.30;99.90;;;;;;5016957;28;20022;-72
2021/05/14 08:08:39;;;;;;;19.52;14.00;;;14.30;99.90;;;;;;5016740;28;20084;-71
2021/05/14 08:11:07;;;;;;;19.05;13.30;;;14.40;99.90;;;;;;5016871;28;20032;-71
2021/05/14 08:13:35;;;;;;;17.55;12.65;;;14.40;99.90;;;;;;5015562;28;20026;-71
2021/05/14 08:16:03;;;;;;;19.58;12.85;;;14.40;99.90;;;;;;5015417;28;20307;-71
2021/05/14 08:18:32;;;;;;;18.55;13.38;;;14.40;99.90;;;;;;5028734;28;20341;-71
2021/05/14 08:20:59;;;;;;;21.95;13.27;;;14.50;99.90;;;;;;5037081;28;20025;-71
2021/05/14 08:23:27;;;;;;;21.08;14.82;;;14.50;99.90;;;;;;5037306;28;20018;-72
2021/05/14 08:25:56;;;;;;;22.10;13.60;;;14.50;99.90;;;;;;5019753;28;20447;-72
2021/05/14 08:28:24;;;;;;;17.02;12.50;;;14.50;99.90;;;;;;5037381;28;20034;-72
2021/05/14 08:30:51;;;;;;;19.88;14.57;;;14.60;99.90;;;;;;5037265;28;20446;-72
2021/05/14 08:33:18;;;;;;;17.88;13.75;;;14.70;99.90;;;;;;5037037;28;20033;-72
2021/05/14 08:35:46;;;;;;;18.90;12.88;;;14.80;99.90;;;;;;5037444;28;20329;-74
2021/05/14 08:38:13;;;;;;;18.02;12.68;;;14.90;99.90;;;;;;5036268;28;20248;-72
2021/05/14 08:40:41;;;;;;;17.00;12.88;;;15.00;99.90;;;;;;5018584;28;20079;-72
2021/05/14 08:43:10;;;;;;;16.25;11.68;;;15.10;99.90;;;;;;5038313;28;20021;-72
2021/05/14 08:45:41;;;;;;;16.60;12.15;;;15.30;99.90;;;;;;5039857;28;20060;-72
2021/05/14 08:48:14;;;;;;;16.80;11.75;;;15.40;99.90;;;;;;5039928;28;20049;-73
2021/05/14 08:50:43;;;;;;;16.70;11.23;;;15.40;99.90;;;;;;5040137;28;20029;-73
2021/05/14 08:53:11;;;;;;;18.63;11.75;;;15.40;99.90;;;;;;5040473;28;20368;-71
2021/05/14 08:55:39;;;;;;;16.65;11.77;;;15.40;99.90;;;;;;5040560;28;20104;-70
2021/05/14 08:58:06;;;;;;;18.08;11.63;;;15.40;99.90;;;;;;5040625;28;20326;-71
2021/05/14 09:00:34;;;;;;;17.58;11.95;;;15.40;99.90;;;;;;5023200;28;20294;-70
2021/05/14 09:03:09;;;;;;;18.60;11.70;;;15.40;99.90;;;;;;5022912;28;20028;-71
2021/05/14 09:05:40;;;;;;;16.00;11.15;;;15.40;99.90;;;;;;5022925;28;20029;-71
2021/05/14 09:08:07;;;;;;;20.80;11.98;;;15.40;99.90;;;;;;5040591;28;20067;-71
2021/05/14 09:10:36;;;;;;;18.67;12.90;;;15.40;99.90;;;;;;5040257;28;20416;-72
2021/05/14 09:13:12;;;;;;;15.88;11.05;;;15.40;99.90;;;;;;5040009;28;20033;-72
2021/05/14 09:15:41;;;;;;;18.40;11.27;;;15.30;99.90;;;;;;5039352;28;20409;-71
2021/05/14 09:18:19;;;;;;;19.02;11.13;;;15.30;99.90;;;;;;5039059;28;20048;-71
2021/05/14 09:20:58;;;;;;;16.25;11.32;;;15.20;99.90;;;;;;5039600;28;20022;-71
2021/05/14 09:23:37;;;;;;;21.92;12.10;;;15.10;99.90;;;;;;5039561;28;20025;-71
2021/05/14 09:26:13;;;;;;;16.50;11.20;;;15.10;99.90;;;;;;5040605;28;20057;-72
2021/05/14 09:28:44;;;;;;;17.50;11.48;;;15.00;99.90;;;;;;5040646;28;20056;-71
2021/05/14 09:31:16;;;;;;;17.27;10.38;;;14.90;99.90;;;;;;5040207;28;20022;-71
2021/05/14 09:33:46;;;;;;;15.80;10.93;;;14.80;99.90;;;;;;5039994;28;20026;-71
2021/05/14 09:36:21;;;;;;;15.65;11.85;;;14.60;99.90;;;;;;5040022;28;20103;-71
2021/05/14 09:38:51;;;;;;;15.30;10.07;;;14.40;99.90;;;;;;5039871;28;20028;-71
2021/05/14 09:41:44;;;;;;;16.17;11.18;;;14.10;99.90;;;;;;5039347;28;20033;-71
2021/05/14 09:44:16;;;;;;;20.80;11.15;;;14.00;99.90;;;;;;5039162;28;20017;-71
2021/05/14 09:46:53;;;;;;;15.23;10.55;;;14.00;99.90;;;;;;5021317;28;20321;-71
2021/05/14 09:49:22;;;;;;;17.23;9.95;;;14.10;99.90;;;;;;5038809;28;20070;-71
2021/05/14 09:51:53;;;;;;;14.18;9.23;;;14.20;99.90;;;;;;5038727;28;20380;-71
2021/05/14 09:54:24;;;;;;;14.00;9.90;;;14.40;99.90;;;;;;5038662;28;20029;-71
2021/05/14 10:00:11;;;;;;;10.63;8.75;;;14.70;99.90;;;;;;5039667;28;20101;-71
2021/05/14 10:02:41;;;;;;;14.25;9.23;;;14.70;99.90;;;;;;5040384;28;20025;-78
2021/05/14 10:05:15;;;;;;;12.77;8.70;;;14.70;99.90;;;;;;5040207;28;20055;-72
2021/05/14 10:07:45;;;;;;;14.02;8.57;;;14.70;99.90;;;;;;5039507;28;20029;-72
2021/05/14 10:10:13;;;;;;;13.90;8.77;;;14.70;99.90;;;;;;5039277;28;20036;-71
2021/05/14 10:12:41;;;;;;;12.95;8.23;;;14.60;99.90;;;;;;5039024;28;20025;-71
2021/05/14 10:15:12;;;;;;;13.63;8.98;;;14.50;99.90;;;;;;5038471;28;20111;-71
2021/05/14 10:17:44;;;;;;;16.58;9.45;;;14.40;99.90;;;;;;5017476;28;20041;-71
2021/05/14 10:20:17;;;;;;;13.43;9.90;;;14.30;99.90;;;;;;5018968;28;20429;-79
2021/05/14 10:22:47;;;;;;;13.30;9.05;;;14.20;99.90;;;;;;5018365;28;20022;-74
2021/05/14 10:25:34;;;;;;;14.38;9.95;;;14.00;99.90;;;;;;5017412;28;20092;-77
2021/05/14 10:28:16;;;;;;;14.10;10.18;;;13.90;99.90;;;;;;5016986;28;20022;-82
2021/05/14 10:31:06;;;;;;;15.27;11.27;;;13.70;99.90;;;;;;5019238;28;20455;-84
2021/05/14 10:33:45;;;;;;;17.38;10.48;;;13.50;99.90;;;;;;5018037;28;20026;-82
2021/05/14 10:36:39;;;;;;;16.02;10.57;;;13.30;99.90;;;;;;5002341;28;20037;-81
2021/05/14 10:39:27;;;;;;;13.77;10.18;;;13.10;99.90;;;;;;5018108;28;20033;-78
2021/05/14 10:42:08;;;;;;;14.25;10.13;;;13.00;99.90;;;;;;5018085;28;20105;-78
2021/05/14 10:44:51;;;;;;;15.73;11.88;;;12.90;99.90;;;;;;5018137;28;20418;-83
2021/05/14 10:47:39;;;;;;;14.20;9.77;;;12.90;99.90;;;;;;5018546;28;20326;-80
2021/05/14 10:50:40;;;;;;;17.23;9.85;;;12.90;99.90;;;;;;5007931;28;20065;-82
2021/05/14 10:53:28;;;;;;;11.80;8.07;;;13.10;99.90;;;;;;5017756;28;20026;-80
2021/05/14 10:56:17;;;;;;;12.23;8.63;;;13.40;99.90;;;;;;5017869;28;20018;-75
2021/05/14 10:58:47;;;;;;;10.10;7.40;;;13.70;99.90;;;;;;5017902;28;20045;-82
2021/05/14 11:01:38;;;;;;;9.82;7.40;;;14.00;99.90;;;;;;5018724;28;20018;-79
2021/05/14 11:04:13;;;;;;;11.77;6.65;;;14.30;99.90;;;;;;5016518;28;20041;-77
2021/05/14 11:06:42;;;;;;;9.98;6.90;;;14.60;99.90;;;;;;5018555;28;20102;-82
2021/05/14 11:09:11;;;;;;;9.98;6.82;;;14.80;99.90;;;;;;5017428;28;20080;-81
2021/05/14 11:11:56;;;;;;;9.02;6.40;;;15.10;99.90;;;;;;5018956;28;20076;-82
2021/05/14 11:14:24;;;;;;;8.25;6.30;;;15.40;99.90;;;;;;5019090;28;20033;-82
2021/05/14 11:16:57;;;;;;;8.85;6.18;;;15.70;99.90;;;;;;5017713;28;20022;-85
2021/05/14 11:19:30;;;;;;;9.88;5.32;;;16.00;99.90;;;;;;5037785;28;20071;-85
2021/05/14 11:22:15;;;;;;;7.63;5.15;;;16.20;99.90;;;;;;5020238;28;20030;-85
2021/05/14 11:24:50;;;;;;;7.15;4.93;;;16.40;99.90;;;;;;5019834;28;20044;-85
2021/05/14 11:27:23;;;;;;;10.10;5.90;;;16.60;99.90;;;;;;5037474;28;20156;-85
2021/05/14 11:29:55;;;;;;;12.43;5.00;;;16.70;99.90;;;;;;5019843;28;20029;-85
2021/05/14 11:32:40;;;;;;;9.25;5.72;;;16.90;99.90;;;;;;5019602;28;20021;-70
2021/05/14 11:35:20;;;;;;;9.50;5.72;;;17.00;99.20;;;;;;5037498;28;20021;-70
2021/05/14 11:37:58;;;;;;;8.13;5.50;;;17.00;98.70;;;;;;5037069;28;20099;-70
2021/05/14 11:40:26;;;;;;;9.02;5.22;;;17.00;98.50;;;;;;5037825;28;20021;-70
2021/05/14 11:42:56;;;;;;;7.97;5.50;;;17.00;98.70;;;;;;5037710;28;20018;-70
2021/05/14 11:45:27;;;;;;;7.68;4.85;;;17.10;98.30;;;;;;5038161;28;20018;-70
2021/05/14 11:48:01;;;;;;;6.38;3.63;;;17.20;97.50;;;;;;5037512;28;20017;-70
2021/05/14 11:50:38;;;;;;;5.60;3.47;;;17.20;96.90;;;;;;5037730;28;20348;-70
2021/05/14 11:53:07;;;;;;;3.33;2.30;;;17.30;96.20;;;;;;5037557;28;20507;-70
2021/05/14 11:55:37;;;;;;;3.15;2.33;;;17.20;96.60;;;;;;5037416;28;20026;-70
2021/05/14 11:58:05;;;;;;;4.18;1.63;;;17.20;97.10;;;;;;5037085;28;20124;-72
2021/05/14 12:00:42;;;;;;;4.57;2.05;;;17.20;95.70;;;;;;5037155;28;20048;-70
2021/05/14 12:03:11;;;;;;;2.45;1.60;;;17.00;95.80;;;;;;5036553;28;20034;-70
2021/05/14 12:05:42;;;;;;;2.67;2.28;;;16.90;95.00;;;;;;5036925;28;20033;-70
2021/05/14 12:08:10;;;;;;;2.28;1.73;;;16.70;95.50;;;;;;5018822;28;20029;-70
2021/05/14 12:11:02;;;;;;;3.75;2.47;;;16.50;95.60;;;;;;5036985;28;20063;-69
2021/05/14 12:13:31;;;;;;;4.20;2.58;;;16.40;96.10;;;;;;5036809;28;20049;-70
2021/05/14 12:16:10;;;;;;;3.90;2.80;;;16.40;96.90;;;;;;5037851;28;20052;-69
2021/05/14 12:18:54;;;;;;;7.65;2.80;;;16.30;96.70;;;;;;5040098;28;20353;-70
2021/05/14 12:21:31;;;;;;;4.20;2.47;;;16.20;97.20;;;;;;5023692;28;20022;-70
2021/05/14 12:24:03;;;;;;;5.18;2.95;;;16.20;97.50;;;;;;5041308;28;20017;-70
2021/05/14 12:26:31;;;;;;;5.97;3.42;;;16.20;97.50;;;;;;5041472;28;20022;-70
2021/05/14 12:28:59;;;;;;;5.97;3.38;;;16.20;97.60;;;;;;5041223;28;20112;-70
2021/05/14 12:31:30;;;;;;;7.72;3.78;;;16.20;97.60;;;;;;5040893;28;20444;-69
2021/05/14 12:33:59;;;;;;;5.85;3.67;;;16.10;97.90;;;;;;5040129;28;20112;-71
2021/05/14 12:36:29;;;;;;;5.57;3.67;;;16.20;97.60;;;;;;5040507;28;20026;-69
2021/05/14 12:39:14;;;;;;;6.28;3.90;;;16.20;97.30;;;;;;5040120;28;20029;-69
2021/05/14 12:42:04;;;;;;;5.28;3.17;;;16.20;97.60;;;;;;5040108;28;20017;-69
2021/05/14 12:44:37;;;;;;;5.07;3.28;;;16.30;96.60;;;;;;5022661;28;20021;-70
2021/05/14 12:47:13;;;;;;;10.93;3.42;;;16.50;96.30;;;;;;5039832;28;20026;-70
2021/05/14 12:49:49;;;;;;;4.45;2.97;;;16.70;95.00;;;;;;5040497;28;20024;-70
2021/05/14 12:52:24;;;;;;;5.30;3.53;;;16.80;93.90;;;;;;5040650;28;20029;-70
2021/05/14 12:54:54;;;;;;;6.28;3.58;;;16.90;93.30;;;;;;5040982;28;20032;-70
2021/05/14 12:57:30;;;;;;;4.88;3.45;;;17.00;92.60;;;;;;5041158;28;20401;-69
2021/05/14 12:59:59;;;;;;;5.35;3.95;;;17.20;92.60;;;;;;5023103;28;20124;-71
2021/05/14 13:02:29;;;;;;;5.43;3.40;;;17.30;90.70;;;;;;5040569;28;20107;-71
2021/05/14 13:05:09;;;;;;;7.05;3.72;;;17.50;91.40;;;;;;5007171;28;20021;-71